Terminal Aerodrome Forecast
Issued by NWS

Home | Current Version | Previous Version | Text Only | Print | Product List | Glossary On
Versions: 1 2 3 4 5 6 7 8 9 10 11
000
FTUS42 KTAE 290500
TAFABY
TAF
KABY 290540Z 2906/3006 21008KT P6SM OVC008
     FM290900 32006KT 4SM -RA BR OVC003
     FM300200 34005KT 5SM -RA BR OVC015=

USA.gov is the U.S. government's official web portal to all federal, state and local government web resources and services.